createdAt,value
2023-02-11T00:00:30.731Z,22.25
2023-02-11T00:03:01.541Z,23.45
2023-02-11T00:05:28.718Z,18.13
2023-02-11T00:07:55.812Z,21.70
2023-02-11T00:10:23.072Z,20.33
2023-02-11T00:12:52.556Z,27.35
2023-02-11T00:15:21.394Z,20.23
2023-02-11T00:17:48.720Z,20.40
2023-02-11T00:20:18.154Z,17.52
2023-02-11T00:22:45.585Z,15.02
2023-02-11T00:25:14.878Z,14.88
2023-02-11T00:27:42.004Z,18.25
2023-02-11T00:30:10.636Z,15.23
2023-02-11T00:32:42.851Z,20.48
2023-02-11T00:35:36.871Z,15.57
2023-02-11T00:38:14.317Z,15.35
2023-02-11T00:40:46.390Z,20.98
2023-02-11T00:43:27.502Z,15.40
2023-02-11T00:46:20.919Z,12.95
2023-02-11T00:48:55.544Z,14.95
2023-02-11T00:51:32.822Z,17.23
2023-02-11T00:54:00.476Z,15.18
2023-02-11T00:56:37.878Z,18.05
2023-02-11T01:00:58.450Z,15.70
2023-02-11T01:03:26.241Z,16.52
2023-02-11T01:06:38.798Z,12.02
2023-02-11T01:09:08.896Z,18.90
2023-02-11T01:11:51.003Z,24.08
2023-02-11T01:14:37.369Z,12.48
2023-02-11T01:17:18.768Z,14.07
2023-02-11T01:20:19.665Z,18.05
2023-02-11T01:22:57.706Z,15.20
2023-02-11T01:25:54.206Z,12.07
2023-02-11T01:28:49.173Z,16.58
2023-02-11T01:31:32.574Z,12.85
2023-02-11T01:34:05.985Z,12.95
2023-02-11T01:36:45.657Z,13.80
2023-02-11T01:39:15.848Z,12.52
2023-02-11T01:42:06.900Z,15.73
2023-02-11T01:44:40.769Z,17.13
2023-02-11T01:47:15.427Z,12.38
2023-02-11T01:50:02.317Z,18.23
2023-02-11T01:52:37.320Z,12.88
2023-02-11T01:55:42.644Z,14.07
2023-02-11T02:03:13.562Z,14.18
2023-02-11T02:05:56.400Z,18.27
2023-02-11T02:08:40.899Z,14.40
2023-02-11T02:13:37.630Z,12.77
2023-02-11T02:16:21.796Z,11.50
2023-02-11T02:19:30.808Z,14.02
2023-02-11T02:22:23.637Z,10.15
2023-02-11T02:28:08.517Z,15.35
2023-02-11T02:31:01.255Z,13.82
2023-02-11T02:33:43.124Z,10.13
2023-02-11T02:36:30.686Z,15.68
2023-02-11T02:39:13.678Z,14.15
2023-02-11T02:41:49.349Z,10.63
2023-02-11T02:44:23.521Z,16.25
2023-02-11T02:46:51.095Z,15.23
2023-02-11T02:49:18.391Z,16.23
2023-02-11T02:52:25.846Z,15.57
2023-02-11T02:55:23.647Z,13.73
2023-02-11T02:58:05.247Z,13.25
2023-02-11T03:01:08.462Z,13.40
2023-02-11T03:03:46.435Z,13.73
2023-02-11T03:06:22.882Z,18.50
2023-02-11T03:09:22.576Z,15.30
2023-02-11T03:11:52.435Z,12.65
2023-02-11T03:14:27.051Z,15.15
2023-02-11T03:17:05.069Z,11.52
2023-02-11T03:19:49.122Z,14.85
2023-02-11T03:22:53.367Z,15.00
2023-02-11T03:25:22.901Z,19.42
2023-02-11T03:27:58.708Z,17.70
2023-02-11T03:30:40.963Z,17.45
2023-02-11T03:33:20.559Z,12.80
2023-02-11T03:36:18.419Z,13.50
2023-02-11T03:39:00.007Z,13.95
2023-02-11T03:41:48.381Z,9.90
2023-02-11T03:44:48.928Z,22.48
2023-02-11T03:47:24.207Z,14.07
2023-02-11T03:49:54.825Z,17.88
2023-02-11T03:52:26.235Z,14.60
2023-02-11T03:54:58.712Z,18.07
2023-02-11T03:57:29.391Z,12.68
2023-02-11T04:00:02.057Z,14.95
2023-02-11T04:02:42.540Z,14.40
2023-02-11T04:05:12.834Z,17.73
2023-02-11T04:07:45.604Z,17.17
2023-02-11T04:10:15.584Z,15.70
2023-02-11T04:12:48.149Z,15.45
2023-02-11T04:15:15.706Z,16.70
2023-02-11T04:17:52.226Z,16.10
2023-02-11T04:20:19.681Z,15.73
2023-02-11T04:23:03.473Z,14.63
2023-02-11T04:25:35.788Z,22.77
2023-02-11T04:28:07.460Z,21.15
2023-02-11T04:30:37.025Z,17.90
2023-02-11T04:33:04.390Z,16.83
2023-02-11T04:35:31.658Z,18.10
2023-02-11T04:38:06.464Z,17.42
2023-02-11T04:40:33.998Z,17.77
2023-02-11T04:43:06.687Z,14.48
2023-02-11T04:45:41.820Z,14.75
2023-02-11T04:48:09.387Z,14.60
2023-02-11T04:50:39.829Z,22.42
2023-02-11T04:53:07.187Z,15.50
2023-02-11T04:55:34.961Z,20.27
2023-02-11T04:58:05.531Z,16.02
2023-02-11T05:00:37.069Z,13.45
2023-02-11T05:03:04.488Z,12.75
2023-02-11T05:05:34.344Z,15.57
2023-02-11T05:08:06.060Z,16.70
2023-02-11T05:10:37.451Z,18.83
2023-02-11T05:13:13.766Z,11.57
2023-02-11T05:15:42.149Z,13.05
2023-02-11T05:18:15.153Z,18.65
2023-02-11T05:20:47.917Z,14.57
2023-02-11T05:23:18.180Z,19.83
2023-02-11T05:25:48.714Z,12.70
2023-02-11T05:28:21.696Z,15.57
2023-02-11T05:30:58.910Z,16.45
2023-02-11T05:33:29.144Z,13.35
2023-02-11T05:36:05.716Z,16.60
2023-02-11T05:38:36.279Z,17.55
2023-02-11T05:41:04.647Z,16.33
2023-02-11T05:43:43.608Z,17.30
2023-02-11T05:46:11.087Z,15.30
2023-02-11T05:48:38.473Z,16.95
2023-02-11T05:51:16.093Z,16.75
2023-02-11T05:53:47.666Z,18.50
2023-02-11T05:56:15.088Z,17.33
2023-02-11T05:58:42.471Z,19.23
2023-02-11T06:01:12.923Z,14.85
2023-02-11T06:03:40.294Z,19.27
2023-02-11T06:06:18.956Z,18.08
2023-02-11T06:08:46.814Z,16.13
2023-02-11T06:11:16.145Z,16.00
2023-02-11T06:13:46.368Z,20.42
2023-02-11T06:16:16.419Z,20.52
2023-02-11T06:18:43.805Z,21.58
2023-02-11T06:21:14.119Z,18.65
2023-02-11T06:23:41.476Z,24.15
2023-02-11T06:26:17.646Z,20.00
2023-02-11T06:28:45.070Z,25.60
2023-02-11T06:31:15.523Z,24.15
2023-02-11T06:33:45.826Z,26.27
2023-02-11T06:36:16.370Z,23.85
2023-02-11T06:38:43.810Z,19.40
2023-02-11T06:41:12.645Z,16.88
2023-02-11T06:43:43.424Z,22.08
2023-02-11T06:46:21.185Z,24.77
2023-02-11T06:48:51.153Z,24.45
2023-02-11T06:51:20.247Z,26.33
2023-02-11T06:53:51.836Z,20.83
2023-02-11T06:56:31.293Z,17.70
2023-02-11T06:59:05.117Z,21.95
2023-02-11T07:01:50.233Z,20.33
2023-02-11T07:04:25.262Z,27.00
2023-02-11T07:06:55.879Z,23.83
2023-02-11T07:09:23.232Z,21.67
2023-02-11T07:11:53.520Z,21.15
2023-02-11T07:14:26.385Z,21.50
2023-02-11T07:17:43.398Z,29.10
2023-02-11T07:19:55.116Z,32.05
2023-02-11T07:22:22.745Z,36.05
2023-02-11T07:24:57.999Z,33.67
2023-02-11T07:27:26.462Z,34.30
2023-02-11T07:29:54.898Z,30.70
2023-02-11T07:32:33.532Z,31.80
2023-02-11T07:35:02.905Z,32.35
2023-02-11T07:37:36.115Z,28.38
2023-02-11T07:40:04.500Z,28.08
2023-02-11T07:42:31.844Z,26.92
2023-02-11T07:45:02.315Z,30.27
2023-02-11T07:47:45.850Z,25.90
2023-02-11T07:50:17.507Z,26.13
2023-02-11T07:52:47.264Z,28.50
2023-02-11T07:55:14.583Z,28.98
2023-02-11T07:57:42.149Z,37.13
2023-02-11T08:00:16.196Z,33.38
2023-02-11T08:02:53.072Z,38.72
2023-02-11T08:05:36.505Z,37.63
2023-02-11T08:08:31.290Z,38.78
2023-02-11T08:11:10.216Z,39.88
2023-02-11T08:13:42.334Z,37.78
2023-02-11T08:16:18.084Z,42.58
2023-02-11T08:18:57.547Z,42.30
2023-02-11T08:21:28.177Z,44.22
2023-02-11T08:23:56.231Z,39.25
2023-02-11T08:26:29.250Z,30.40
2023-02-11T08:28:59.773Z,45.33
2023-02-11T08:31:39.596Z,36.05
2023-02-11T08:34:07.046Z,43.30
2023-02-11T08:36:38.707Z,38.80
2023-02-11T08:39:26.660Z,39.42
2023-02-11T08:41:58.223Z,45.40
2023-02-11T08:44:25.766Z,43.67
2023-02-11T08:46:53.726Z,37.40
2023-02-11T08:49:44.049Z,37.70
2023-02-11T08:52:13.661Z,38.67
2023-02-11T08:54:41.058Z,35.83
2023-02-11T08:57:12.200Z,43.15
2023-02-11T08:59:42.547Z,38.15
2023-02-11T09:02:13.197Z,42.50
2023-02-11T09:04:40.781Z,39.42
2023-02-11T09:07:09.666Z,35.58
2023-02-11T09:09:42.754Z,34.05
2023-02-11T09:12:09.979Z,41.70
2023-02-11T09:14:39.804Z,39.95
2023-02-11T09:17:07.061Z,37.13
2023-02-11T09:19:39.032Z,39.80
2023-02-11T09:22:08.540Z,40.75
2023-02-11T09:24:35.778Z,37.40
2023-02-11T09:27:06.882Z,43.50
2023-02-11T09:29:36.845Z,40.28
2023-02-11T09:32:04.335Z,41.15
2023-02-11T09:34:31.693Z,35.42
2023-02-11T09:37:01.595Z,35.15
2023-02-11T09:39:29.525Z,30.52
2023-02-11T09:42:27.025Z,37.28
2023-02-11T09:44:58.095Z,41.17
2023-02-11T09:47:46.294Z,37.00
2023-02-11T09:50:18.360Z,37.30
2023-02-11T09:53:08.387Z,35.80
2023-02-11T09:55:40.004Z,39.08
2023-02-11T09:58:18.501Z,39.78
2023-02-11T10:00:51.935Z,40.97
2023-02-11T10:04:01.523Z,43.03
2023-02-11T10:06:36.723Z,42.60
2023-02-11T10:09:25.003Z,37.83
2023-02-11T10:12:14.344Z,51.03
2023-02-11T10:15:15.354Z,48.85
2023-02-11T10:18:00.991Z,45.08
2023-02-11T10:20:52.307Z,39.10
2023-02-11T10:23:33.940Z,41.72
2023-02-11T10:26:01.907Z,37.95
2023-02-11T10:28:39.666Z,42.63
2023-02-11T10:31:22.425Z,41.60
2023-02-11T10:34:13.056Z,37.30
2023-02-11T10:36:43.025Z,38.35
2023-02-11T10:39:14.333Z,33.88
2023-02-11T10:41:50.236Z,32.55
2023-02-11T10:44:31.627Z,34.60
2023-02-11T10:47:05.624Z,32.80
2023-02-11T10:49:42.478Z,39.45
2023-02-11T10:52:28.501Z,35.10
2023-02-11T10:55:16.387Z,36.00
2023-02-11T10:58:04.746Z,31.00
2023-02-11T11:00:42.542Z,40.13
2023-02-11T11:03:21.374Z,35.90
2023-02-11T11:06:31.963Z,34.40
2023-02-11T11:09:02.355Z,40.72
2023-02-11T11:11:32.313Z,37.50
2023-02-11T11:14:03.464Z,37.55
2023-02-11T11:16:32.650Z,37.40
2023-02-11T11:19:08.160Z,37.22
2023-02-11T11:21:46.667Z,32.80
2023-02-11T11:24:44.575Z,32.97
2023-02-11T11:27:21.260Z,33.03
2023-02-11T11:29:56.503Z,36.35
2023-02-11T11:32:35.576Z,35.85
2023-02-11T11:35:07.978Z,38.47
2023-02-11T11:37:39.471Z,36.78
2023-02-11T11:40:22.231Z,30.63
2023-02-11T11:43:06.301Z,31.48
2023-02-11T11:45:33.846Z,31.35
2023-02-11T11:48:22.607Z,32.75
2023-02-11T11:50:55.503Z,30.38
2023-02-11T11:53:41.901Z,27.80
2023-02-11T11:56:17.120Z,27.52
2023-02-11T11:58:44.617Z,37.47
2023-02-11T12:01:33.192Z,24.05
2023-02-11T12:04:19.135Z,22.65
2023-02-11T12:06:51.910Z,21.35
2023-02-11T12:09:42.443Z,24.58
2023-02-11T12:12:18.162Z,20.98
2023-02-11T12:15:17.553Z,20.27
2023-02-11T12:18:33.283Z,19.63
2023-02-11T12:21:26.815Z,19.13
2023-02-11T12:24:16.950Z,18.98
2023-02-11T12:26:47.720Z,17.70
2023-02-11T12:29:24.859Z,16.77
2023-02-11T12:32:27.110Z,18.88
2023-02-11T12:35:27.814Z,16.58
2023-02-11T12:38:10.228Z,13.50
2023-02-11T12:40:45.424Z,11.93
2023-02-11T12:43:25.514Z,13.15
2023-02-11T12:46:21.224Z,14.80
2023-02-11T12:49:00.508Z,17.20
2023-02-11T12:51:46.631Z,14.38
2023-02-11T12:54:46.118Z,15.80
2023-02-11T12:57:28.079Z,14.18
2023-02-11T12:59:56.588Z,11.98
2023-02-11T13:02:51.258Z,12.82
2023-02-11T13:05:24.401Z,9.82
2023-02-11T13:07:56.195Z,12.75
2023-02-11T13:10:30.374Z,14.55
2023-02-11T13:13:17.178Z,12.65
2023-02-11T13:16:07.764Z,12.98
2023-02-11T13:19:01.292Z,10.32
2023-02-11T13:21:56.568Z,9.60
2023-02-11T13:24:48.333Z,9.32
2023-02-11T13:27:37.081Z,8.63
2023-02-11T13:30:28.296Z,7.93
2023-02-11T13:32:58.118Z,10.60
2023-02-11T13:35:40.419Z,13.38
2023-02-11T13:38:16.747Z,11.57
2023-02-11T13:40:44.846Z,16.52
2023-02-11T13:43:25.454Z,14.30
2023-02-11T13:45:57.744Z,12.43
2023-02-11T13:51:34.788Z,14.43
2023-02-11T13:54:06.128Z,13.75
2023-02-11T13:56:33.149Z,8.55
2023-02-11T13:59:03.389Z,12.50
2023-02-11T14:02:08.927Z,16.65
2023-02-11T14:05:02.204Z,16.58
2023-02-11T14:07:50.955Z,14.30
2023-02-11T14:10:51.242Z,15.02
2023-02-11T14:13:35.464Z,12.40
2023-02-11T14:16:25.429Z,16.35
2023-02-11T14:19:02.616Z,15.93
2023-02-11T14:21:33.899Z,17.00
2023-02-11T14:24:07.101Z,15.07
2023-02-11T14:26:53.366Z,14.32
2023-02-11T14:29:45.174Z,14.73
2023-02-11T14:32:38.532Z,15.60
2023-02-11T14:35:24.448Z,12.65
2023-02-11T14:38:39.214Z,11.82
2023-02-11T14:41:25.256Z,12.65
2023-02-11T14:44:01.672Z,9.52
2023-02-11T14:46:32.965Z,8.52
2023-02-11T14:49:08.135Z,13.50
2023-02-11T14:51:38.834Z,12.02
2023-02-11T14:54:19.188Z,12.35
2023-02-11T14:56:48.448Z,14.32
2023-02-11T14:59:24.324Z,13.68
2023-02-11T15:01:54.749Z,11.07
2023-02-11T15:04:31.774Z,10.98
2023-02-11T15:07:07.183Z,10.70
2023-02-11T15:09:44.613Z,12.32
2023-02-11T15:12:31.218Z,14.55
2023-02-11T15:15:05.406Z,14.77
2023-02-11T15:17:36.313Z,14.38
2023-02-11T15:20:09.689Z,10.10
2023-02-11T15:22:39.477Z,13.80
2023-02-11T15:25:19.669Z,11.38
2023-02-11T15:27:50.646Z,14.32
2023-02-11T15:30:23.452Z,10.85
2023-02-11T15:33:02.826Z,13.25
2023-02-11T15:35:41.096Z,9.48
2023-02-11T15:38:12.930Z,11.93
2023-02-11T15:40:39.942Z,14.30
2023-02-11T15:43:10.108Z,10.57
2023-02-11T15:45:54.582Z,13.30
2023-02-11T15:48:35.299Z,11.27
2023-02-11T15:51:20.925Z,10.60
2023-02-11T15:53:57.221Z,12.45
2023-02-11T15:56:32.892Z,9.82
2023-02-11T15:59:09.754Z,11.07
2023-02-11T16:01:39.669Z,12.73
2023-02-11T16:04:06.983Z,11.23
2023-02-11T16:06:40.485Z,9.60
2023-02-11T16:09:11.104Z,11.60
2023-02-11T16:11:55.928Z,10.48
2023-02-11T16:14:32.628Z,10.35
2023-02-11T16:17:19.768Z,9.63
2023-02-11T16:19:49.765Z,9.25
2023-02-11T16:22:26.101Z,9.32
2023-02-11T16:24:57.044Z,8.90
2023-02-11T16:27:35.374Z,9.55
2023-02-11T16:30:02.767Z,7.47
2023-02-11T16:32:30.879Z,7.55
2023-02-11T16:35:24.958Z,9.70
2023-02-11T16:37:53.309Z,6.88
2023-02-11T16:40:20.605Z,8.07
2023-02-11T16:42:47.746Z,7.75
2023-02-11T16:45:17.213Z,8.50
2023-02-11T16:47:46.764Z,7.07
2023-02-11T16:50:25.656Z,7.40
2023-02-11T16:52:53.137Z,8.60
2023-02-11T16:55:22.084Z,7.75
2023-02-11T16:57:49.794Z,8.20
2023-02-11T17:00:18.080Z,6.53
2023-02-11T17:03:07.155Z,9.18
2023-02-11T17:05:58.108Z,8.68
2023-02-11T17:08:25.681Z,8.52
2023-02-11T17:10:53.231Z,7.50
2023-02-11T17:13:23.107Z,9.02
2023-02-11T17:16:07.606Z,9.30
2023-02-11T17:18:36.006Z,8.45
2023-02-11T17:21:09.482Z,6.32
2023-02-11T17:23:48.725Z,6.03
2023-02-11T17:30:38.374Z,8.82
2023-02-11T17:33:05.775Z,6.63
2023-02-11T17:35:57.454Z,4.60
2023-02-11T17:38:27.969Z,4.43
2023-02-11T17:41:00.116Z,5.40
2023-02-11T17:43:36.308Z,4.82
2023-02-11T17:46:08.110Z,4.32
2023-02-11T17:48:36.853Z,4.32
2023-02-11T17:51:20.588Z,3.85
2023-02-11T17:53:52.552Z,6.25
2023-02-11T17:56:20.257Z,5.57
2023-02-11T17:59:16.890Z,6.10
2023-02-11T18:01:46.924Z,4.60
2023-02-11T18:04:17.500Z,4.38
2023-02-11T18:06:46.822Z,5.68
2023-02-11T18:09:14.228Z,4.78
2023-02-11T18:12:08.700Z,4.40
2023-02-11T18:14:35.823Z,5.40
2023-02-11T18:17:42.506Z,4.47
2023-02-11T18:20:10.067Z,6.68
2023-02-11T18:23:07.787Z,4.65
2023-02-11T18:25:42.266Z,4.90
2023-02-11T18:28:09.548Z,4.65
2023-02-11T18:30:36.669Z,5.57
2023-02-11T18:33:26.938Z,4.70
2023-02-11T18:35:59.487Z,3.45
2023-02-11T18:38:26.975Z,4.40
2023-02-11T18:41:42.449Z,4.93
2023-02-11T18:44:25.494Z,5.40
2023-02-11T18:47:16.047Z,4.95
2023-02-11T18:52:43.555Z,5.75
2023-02-11T18:55:10.974Z,3.90
2023-02-11T18:57:39.158Z,4.82
2023-02-11T19:00:07.917Z,7.60
2023-02-11T19:02:35.284Z,5.72
2023-02-11T19:05:08.130Z,4.88
2023-02-11T19:07:35.994Z,5.15
2023-02-11T19:10:04.019Z,5.80
2023-02-11T19:12:33.197Z,5.07
2023-02-11T19:15:01.185Z,5.88
2023-02-11T19:20:25.949Z,9.05
2023-02-11T19:23:01.058Z,5.15
2023-02-11T19:25:28.370Z,6.22
2023-02-11T19:27:55.389Z,6.57
2023-02-11T19:30:25.872Z,5.57
2023-02-11T19:32:59.654Z,5.55
2023-02-11T19:35:26.979Z,5.90
2023-02-11T19:38:01.274Z,6.35
2023-02-11T19:40:39.585Z,6.53
2023-02-11T19:43:06.831Z,9.88
2023-02-11T19:46:10.075Z,6.38
2023-02-11T19:48:41.054Z,6.53
2023-02-11T19:51:13.522Z,6.78
2023-02-11T19:53:41.079Z,6.40
2023-02-11T19:56:12.554Z,6.63
2023-02-11T19:58:47.459Z,7.57
2023-02-11T20:01:17.548Z,6.95
2023-02-11T20:03:45.320Z,7.55
2023-02-11T20:06:15.796Z,8.38
2023-02-11T20:08:43.740Z,5.93
2023-02-11T20:11:17.883Z,8.13
2023-02-11T20:13:45.212Z,6.88
2023-02-11T20:16:19.029Z,6.53
2023-02-11T20:18:48.483Z,7.40
2023-02-11T20:21:20.884Z,5.93
2023-02-11T20:26:26.442Z,6.90
2023-02-11T20:28:55.411Z,8.93
2023-02-11T20:31:23.506Z,8.48
2023-02-11T20:33:53.547Z,9.05
2023-02-11T20:47:23.030Z,7.75
2023-02-11T20:49:55.149Z,8.77
2023-02-11T20:52:22.468Z,7.97
2023-02-11T20:54:57.630Z,8.07
2023-02-11T20:57:28.666Z,9.85
2023-02-11T21:00:04.280Z,8.30
2023-02-11T21:02:36.122Z,7.07
2023-02-11T21:05:03.359Z,8.70
2023-02-11T21:07:31.587Z,8.52
2023-02-11T21:10:12.197Z,8.65
2023-02-11T21:12:43.117Z,9.13
2023-02-11T21:16:19.677Z,7.10
2023-02-11T21:18:58.150Z,8.05
2023-02-11T21:21:28.699Z,7.80
2023-02-11T21:24:00.807Z,10.35
2023-02-11T21:26:36.787Z,9.20
2023-02-11T21:32:00.941Z,9.45
2023-02-11T21:34:34.039Z,7.38
2023-02-11T21:38:16.685Z,5.90
2023-02-11T21:40:49.422Z,8.82
2023-02-11T21:43:16.846Z,10.27
2023-02-11T21:45:49.081Z,8.50
2023-02-11T21:48:18.038Z,10.40
2023-02-11T21:50:47.201Z,9.15
2023-02-11T21:53:18.806Z,9.90
2023-02-11T21:55:45.990Z,9.30
2023-02-11T21:58:13.780Z,9.57
2023-02-11T22:01:00.824Z,9.90
2023-02-11T22:03:28.355Z,9.32
2023-02-11T22:05:55.899Z,10.88
2023-02-11T22:08:26.545Z,11.68
2023-02-11T22:10:56.302Z,13.57
2023-02-11T22:13:23.318Z,12.80
2023-02-11T22:15:59.137Z,12.90
2023-02-11T22:18:26.358Z,13.90
2023-02-11T22:21:09.651Z,11.35
2023-02-11T22:23:43.590Z,12.27
2023-02-11T22:28:59.436Z,11.98
2023-02-11T22:31:30.191Z,12.25
2023-02-11T22:33:58.320Z,10.65
2023-02-11T22:36:31.248Z,10.10
2023-02-11T22:39:46.199Z,10.05
2023-02-11T22:42:16.742Z,8.38
2023-02-11T22:44:43.968Z,7.82
2023-02-11T22:47:11.396Z,7.03
2023-02-11T22:49:40.471Z,7.80
2023-02-11T22:52:07.590Z,10.10
2023-02-11T22:54:36.166Z,7.78
2023-02-11T22:57:03.348Z,8.30
2023-02-11T22:59:30.332Z,9.13
2023-02-11T23:01:59.340Z,9.10
2023-02-11T23:04:26.637Z,10.77
2023-02-11T23:06:54.233Z,11.18
2023-02-11T23:09:21.352Z,10.23
2023-02-11T23:11:49.440Z,11.10
2023-02-11T23:14:16.656Z,11.63
2023-02-11T23:16:43.805Z,10.40
2023-02-11T23:19:12.453Z,10.88
2023-02-11T23:21:42.839Z,10.05
2023-02-11T23:24:15.301Z,9.43
2023-02-11T23:26:45.854Z,8.60
2023-02-11T23:29:20.682Z,10.13
2023-02-11T23:31:48.326Z,11.10
2023-02-11T23:34:17.429Z,8.77
2023-02-11T23:36:49.382Z,9.32
2023-02-11T23:39:19.356Z,11.05
2023-02-11T23:41:47.033Z,9.32
2023-02-11T23:44:14.377Z,9.60
2023-02-11T23:46:41.715Z,7.55
2023-02-11T23:49:14.761Z,8.50
2023-02-11T23:51:44.398Z,9.57
2023-02-11T23:54:21.712Z,7.53
2023-02-11T23:57:03.240Z,6.30
2023-02-11T23:59:30.467Z,8.30
